createdAt,value
2017-07-12T00:01:48.312Z,24.30
2017-07-12T00:04:17.374Z,24.00
2017-07-12T00:06:46.820Z,23.50
2017-07-12T00:09:16.101Z,23.10
2017-07-12T00:11:45.427Z,22.90
2017-07-12T00:14:14.371Z,23.40
2017-07-12T00:16:43.696Z,23.90
2017-07-12T00:19:13.197Z,22.90
2017-07-12T00:21:42.636Z,22.30
2017-07-12T00:24:13.212Z,23.10
2017-07-12T00:26:42.499Z,22.50
2017-07-12T00:29:12.679Z,23.30
2017-07-12T00:31:42.200Z,22.80
2017-07-12T00:34:11.618Z,22.80
2017-07-12T00:36:41.725Z,23.30
2017-07-12T00:39:11.019Z,23.30
2017-07-12T00:41:40.449Z,24.80
2017-07-12T00:44:10.433Z,24.90
2017-07-12T00:46:39.570Z,25.00
2017-07-12T00:49:09.047Z,24.70
2017-07-12T00:51:38.323Z,23.70
2017-07-12T00:54:07.566Z,25.20
2017-07-12T00:56:37.807Z,24.00
2017-07-12T00:59:07.009Z,23.90
2017-07-12T01:01:36.564Z,23.70
2017-07-12T01:04:05.941Z,24.50
2017-07-12T01:06:35.431Z,24.80
2017-07-12T01:09:04.927Z,24.10
2017-07-12T01:11:34.832Z,25.30
2017-07-12T01:14:04.063Z,24.50
2017-07-12T01:16:33.521Z,24.90
2017-07-12T01:19:03.086Z,23.80
2017-07-12T01:21:32.331Z,23.90
2017-07-12T01:24:02.037Z,24.50
2017-07-12T01:26:31.778Z,24.50
2017-07-12T01:29:01.050Z,25.60
2017-07-12T01:31:30.319Z,24.60
2017-07-12T01:33:59.777Z,25.50
2017-07-12T01:36:29.041Z,24.90
2017-07-12T01:38:59.082Z,24.80
2017-07-12T01:41:28.550Z,24.80
2017-07-12T01:43:57.824Z,25.10
2017-07-12T01:46:27.181Z,24.80
2017-07-12T01:48:57.169Z,25.20
2017-07-12T01:51:26.447Z,25.10
2017-07-12T01:53:55.536Z,25.70
2017-07-12T01:56:25.016Z,25.90
2017-07-12T01:58:54.117Z,25.30
2017-07-12T02:01:23.707Z,25.60
2017-07-12T02:03:52.434Z,25.90
2017-07-12T02:06:21.096Z,27.50
2017-07-12T02:08:49.791Z,25.60
2017-07-12T02:11:18.592Z,26.40
2017-07-12T02:13:47.852Z,26.60
2017-07-12T02:16:17.186Z,26.30
2017-07-12T02:18:46.645Z,26.30
2017-07-12T02:21:16.040Z,25.60
2017-07-12T02:23:45.604Z,26.80
2017-07-12T02:26:14.364Z,25.90
2017-07-12T02:28:43.810Z,27.20
2017-07-12T02:31:13.137Z,27.50
2017-07-12T02:33:43.143Z,26.40
2017-07-12T02:36:12.457Z,26.60
2017-07-12T02:38:41.937Z,26.80
2017-07-12T02:41:11.170Z,26.60
2017-07-12T02:43:40.503Z,27.00
2017-07-12T02:46:09.333Z,27.70
2017-07-12T02:48:38.391Z,27.80
2017-07-12T02:51:07.082Z,29.30
2017-07-12T02:53:36.637Z,30.10
2017-07-12T02:56:05.842Z,30.60
2017-07-12T02:58:35.023Z,30.80
2017-07-12T03:01:05.338Z,31.50
2017-07-12T03:03:34.398Z,32.00
2017-07-12T03:06:04.002Z,31.30
2017-07-12T03:08:33.453Z,31.10
2017-07-12T03:11:02.578Z,30.90
2017-07-12T03:13:31.840Z,32.60
2017-07-12T03:16:01.282Z,32.00
2017-07-12T03:18:30.648Z,32.10
2017-07-12T03:21:00.001Z,33.30
2017-07-12T03:23:29.075Z,34.60
2017-07-12T03:25:58.392Z,35.40
2017-07-12T03:28:27.886Z,35.20
2017-07-12T03:30:58.741Z,36.40
2017-07-12T03:33:28.203Z,34.80
2017-07-12T03:35:57.678Z,37.20
2017-07-12T03:38:27.063Z,36.90
2017-07-12T03:40:55.995Z,36.40
2017-07-12T03:43:24.671Z,37.10
2017-07-12T03:45:53.419Z,37.30
2017-07-12T03:48:23.214Z,38.30
2017-07-12T03:50:52.927Z,38.30
2017-07-12T03:53:22.528Z,37.80
2017-07-12T03:55:52.177Z,38.30
2017-07-12T03:58:21.771Z,38.20
2017-07-12T04:00:51.151Z,38.40
2017-07-12T04:03:20.618Z,40.30
2017-07-12T04:05:49.872Z,40.00
2017-07-12T04:08:19.090Z,40.30
2017-07-12T04:10:48.449Z,40.20
2017-07-12T04:13:17.766Z,40.90
2017-07-12T04:15:47.101Z,40.80
2017-07-12T04:18:16.294Z,41.00
2017-07-12T04:20:45.568Z,41.60
2017-07-12T04:23:14.581Z,42.30
2017-07-12T04:25:43.851Z,43.00
2017-07-12T04:28:12.957Z,44.00
2017-07-12T04:30:42.855Z,43.80
2017-07-12T04:33:12.578Z,43.80
2017-07-12T04:35:41.809Z,44.10
2017-07-12T04:38:10.944Z,44.20
2017-07-12T04:40:40.398Z,44.80
2017-07-12T04:43:09.716Z,45.40
2017-07-12T04:45:38.802Z,45.70
2017-07-12T04:48:08.425Z,46.70
2017-07-12T04:50:37.519Z,46.40
2017-07-12T04:53:06.723Z,46.80
2017-07-12T04:55:36.137Z,47.10
2017-07-12T04:58:05.537Z,46.80
2017-07-12T05:00:34.608Z,48.20
2017-07-12T05:03:03.946Z,47.50
2017-07-12T05:05:33.005Z,47.70
2017-07-12T05:08:02.436Z,47.90
2017-07-12T05:10:31.608Z,48.00
2017-07-12T05:13:01.690Z,49.00
2017-07-12T05:15:31.169Z,47.90
2017-07-12T05:18:00.705Z,47.90
2017-07-12T05:20:30.141Z,48.80
2017-07-12T05:22:59.413Z,48.10
2017-07-12T05:25:29.511Z,50.00
2017-07-12T05:28:00.084Z,49.90
2017-07-12T05:30:30.148Z,49.00
2017-07-12T05:32:59.344Z,49.50
2017-07-12T05:35:30.036Z,49.90
2017-07-12T05:38:01.107Z,50.80
2017-07-12T05:40:30.315Z,50.70
2017-07-12T05:42:59.583Z,50.70
2017-07-12T05:45:28.921Z,50.60
2017-07-12T05:47:59.197Z,51.00
2017-07-12T05:50:28.497Z,51.90
2017-07-12T05:52:57.899Z,51.60
2017-07-12T05:55:27.289Z,53.00
2017-07-12T05:57:56.801Z,53.00
2017-07-12T06:00:26.160Z,53.80
2017-07-12T06:02:55.337Z,53.30
2017-07-12T06:05:24.587Z,54.10
2017-07-12T06:07:53.943Z,53.70
2017-07-12T06:10:22.900Z,53.80
2017-07-12T06:12:52.159Z,54.90
2017-07-12T06:15:21.093Z,54.90
2017-07-12T06:17:50.623Z,55.10
2017-07-12T06:20:20.205Z,55.30
2017-07-12T06:22:49.502Z,54.60
2017-07-12T06:25:19.089Z,55.20
2017-07-12T06:27:48.211Z,55.10
2017-07-12T06:30:17.650Z,55.20
2017-07-12T06:32:47.084Z,54.80
2017-07-12T06:35:16.563Z,55.80
2017-07-12T06:37:47.170Z,55.70
2017-07-12T06:40:16.657Z,55.90
2017-07-12T06:42:53.699Z,56.30
2017-07-12T06:45:22.861Z,57.40
2017-07-12T06:47:52.240Z,57.10
2017-07-12T06:50:21.566Z,57.70
2017-07-12T06:52:50.769Z,57.90
2017-07-12T06:55:20.113Z,58.40
2017-07-12T06:57:51.087Z,58.40
2017-07-12T07:00:20.509Z,58.40
2017-07-12T07:02:49.817Z,59.50
2017-07-12T07:05:19.123Z,59.40
2017-07-12T07:07:48.302Z,60.00
2017-07-12T07:10:17.786Z,60.90
2017-07-12T07:12:46.896Z,60.70
2017-07-12T07:15:16.051Z,61.20
2017-07-12T07:17:46.117Z,62.90
2017-07-12T07:20:15.415Z,62.30
2017-07-12T07:35:38.876Z,62.30
2017-07-12T07:38:09.349Z,60.60
2017-07-12T07:40:38.853Z,61.80
2017-07-12T07:43:08.871Z,63.80
2017-07-12T07:45:38.360Z,63.90
2017-07-12T07:48:07.759Z,63.80
2017-07-12T07:50:37.095Z,64.20
2017-07-12T07:53:06.823Z,64.40
2017-07-12T07:55:36.188Z,64.20
2017-07-12T07:58:05.633Z,64.60
2017-07-12T08:00:35.238Z,64.50
2017-07-12T08:03:04.695Z,64.60
2017-07-12T08:05:34.310Z,65.00
2017-07-12T08:08:03.643Z,64.50
2017-07-12T08:10:33.034Z,64.60
2017-07-12T08:13:02.599Z,65.10
2017-07-12T08:15:32.054Z,64.80
2017-07-12T08:18:01.546Z,65.00
2017-07-12T08:20:30.866Z,65.40
2017-07-12T08:23:00.051Z,65.80
2017-07-12T08:25:29.442Z,65.50
2017-07-12T08:27:59.459Z,65.60
2017-07-12T08:30:28.918Z,66.10
2017-07-12T08:32:58.162Z,66.00
2017-07-12T08:35:28.557Z,67.40
2017-07-12T08:37:57.454Z,67.20
2017-07-12T08:40:27.190Z,66.60
2017-07-12T08:42:56.439Z,66.70
2017-07-12T08:45:25.881Z,67.50
2017-07-12T08:47:55.236Z,67.30
2017-07-12T08:50:24.594Z,67.60
2017-07-12T08:52:54.205Z,67.60
2017-07-12T08:55:23.708Z,68.50
2017-07-12T08:57:53.937Z,68.70
2017-07-12T09:00:23.335Z,68.60
2017-07-12T09:02:52.654Z,68.20
2017-07-12T09:05:22.329Z,68.80
2017-07-12T09:07:51.702Z,67.90
2017-07-12T09:10:21.245Z,68.30
2017-07-12T09:12:50.633Z,68.20
2017-07-12T09:15:19.932Z,68.40
2017-07-12T09:17:49.321Z,68.50
2017-07-12T09:20:18.801Z,68.90
2017-07-12T09:22:48.251Z,69.20
2017-07-12T09:35:14.396Z,70.20
2017-07-12T09:37:43.544Z,70.10
2017-07-12T09:40:13.128Z,70.20
2017-07-12T09:42:42.835Z,70.90
2017-07-12T09:45:12.262Z,71.30
2017-07-12T09:47:41.385Z,71.30
2017-07-12T09:50:10.683Z,71.20
2017-07-12T09:52:40.085Z,71.20
2017-07-12T09:55:10.343Z,71.00
2017-07-12T09:57:39.637Z,70.90
2017-07-12T10:00:08.663Z,70.70
2017-07-12T10:02:37.809Z,70.90
2017-07-12T10:05:07.090Z,71.40
2017-07-12T10:07:36.583Z,71.30
2017-07-12T10:10:05.881Z,71.80
2017-07-12T10:12:34.912Z,71.30
2017-07-12T10:15:04.259Z,71.40
2017-07-12T10:17:33.432Z,71.00
2017-07-12T10:20:02.656Z,71.30
2017-07-12T10:22:31.918Z,71.50
2017-07-12T10:25:01.142Z,71.60
2017-07-12T10:27:30.580Z,71.90
2017-07-12T10:29:59.981Z,71.40
2017-07-12T10:32:29.062Z,71.90
2017-07-12T10:34:58.509Z,72.60
2017-07-12T10:37:27.667Z,72.20
2017-07-12T10:39:57.074Z,73.00
2017-07-12T10:42:26.437Z,73.30
2017-07-12T10:44:56.724Z,73.50
2017-07-12T10:47:26.086Z,74.00
2017-07-12T10:49:55.111Z,73.90
2017-07-12T10:52:24.339Z,74.50
2017-07-12T10:54:53.991Z,75.10
2017-07-12T10:57:23.223Z,75.40
2017-07-12T10:59:52.393Z,75.40
2017-07-12T11:02:21.525Z,75.80
2017-07-12T11:04:50.803Z,75.90
2017-07-12T11:07:19.985Z,75.70
2017-07-12T11:09:49.179Z,75.90
2017-07-12T11:12:18.656Z,76.10
2017-07-12T11:14:47.846Z,76.70
2017-07-12T11:17:17.071Z,77.00
2017-07-12T11:19:46.157Z,78.00
2017-07-12T11:22:15.475Z,78.60
2017-07-12T11:24:44.635Z,79.10
2017-07-12T11:27:13.627Z,79.70
2017-07-12T11:29:43.010Z,80.00
2017-07-12T11:32:12.513Z,79.70
2017-07-12T11:34:41.674Z,80.60
2017-07-12T11:37:11.076Z,80.60
2017-07-12T11:39:40.206Z,81.10
2017-07-12T11:42:09.271Z,81.20
2017-07-12T11:44:38.685Z,81.50
2017-07-12T11:47:08.846Z,80.90
2017-07-12T11:49:38.075Z,81.20
2017-07-12T11:52:07.254Z,82.30
2017-07-12T11:54:36.520Z,82.40
2017-07-12T11:57:05.704Z,82.80
2017-07-12T11:59:35.068Z,83.40
2017-07-12T12:02:04.257Z,83.20
2017-07-12T12:04:33.537Z,83.80
2017-07-12T12:07:02.885Z,84.40
2017-07-12T12:09:32.019Z,85.20
2017-07-12T12:12:01.361Z,84.90
2017-07-12T12:14:30.776Z,85.80
2017-07-12T12:16:59.937Z,86.30
2017-07-12T12:19:29.259Z,87.10
2017-07-12T12:21:58.396Z,86.80
2017-07-12T12:24:27.761Z,86.80
2017-07-12T12:26:56.943Z,86.50
2017-07-12T12:29:26.463Z,87.60
2017-07-12T12:31:55.839Z,87.80
2017-07-12T12:34:25.335Z,88.50
2017-07-12T12:36:54.856Z,89.40
2017-07-12T12:39:24.259Z,89.80
2017-07-12T12:41:53.472Z,89.30
2017-07-12T12:44:22.644Z,89.30
2017-07-12T12:46:51.898Z,90.00
2017-07-12T12:49:22.366Z,89.50
2017-07-12T12:51:51.559Z,90.10
2017-07-12T12:54:21.571Z,90.30
2017-07-12T12:56:50.914Z,90.30
2017-07-12T12:59:20.473Z,90.20
2017-07-12T13:01:49.680Z,90.20
2017-07-12T13:04:25.273Z,90.60
2017-07-12T13:06:54.585Z,90.40
2017-07-12T13:09:24.055Z,90.60
2017-07-12T13:11:53.425Z,90.70
2017-07-12T13:14:22.515Z,90.50
2017-07-12T13:16:51.893Z,90.80
2017-07-12T13:19:21.114Z,90.70
2017-07-12T13:21:50.358Z,90.60
2017-07-12T13:24:19.647Z,90.50
2017-07-12T13:26:49.192Z,90.60
2017-07-12T13:29:18.284Z,90.20
2017-07-12T13:31:47.349Z,89.40
2017-07-12T13:34:16.554Z,88.80
2017-07-12T13:36:46.116Z,89.30
2017-07-12T13:39:15.296Z,88.60
2017-07-12T13:41:44.780Z,88.00
2017-07-12T13:44:14.119Z,87.10
2017-07-12T13:46:44.908Z,87.00
2017-07-12T13:49:14.500Z,86.80
2017-07-12T13:51:45.520Z,85.80
2017-07-12T13:54:14.550Z,86.50
2017-07-12T13:56:43.807Z,85.50
2017-07-12T13:59:13.456Z,84.10
2017-07-12T14:01:43.044Z,84.40
2017-07-12T14:04:12.574Z,83.20
2017-07-12T14:06:42.074Z,83.20
2017-07-12T14:09:11.460Z,83.40
2017-07-12T14:11:41.477Z,81.80
2017-07-12T14:14:13.877Z,81.50
2017-07-12T14:16:44.068Z,80.90
2017-07-12T14:19:14.013Z,81.70
2017-07-12T14:21:44.122Z,82.50
2017-07-12T14:24:14.326Z,79.80
2017-07-12T14:26:44.366Z,76.70
2017-07-12T14:29:14.474Z,78.00
2017-07-12T14:31:43.884Z,76.70
2017-07-12T14:34:13.316Z,76.00
2017-07-12T14:36:42.798Z,75.80
2017-07-12T14:39:12.124Z,75.90
2017-07-12T14:41:41.544Z,77.70
2017-07-12T14:44:11.291Z,75.00
2017-07-12T14:46:40.453Z,73.30
2017-07-12T14:49:09.839Z,71.00
2017-07-12T14:51:39.263Z,70.90
2017-07-12T14:54:09.554Z,68.70
2017-07-12T14:56:38.825Z,67.20
2017-07-12T14:59:08.340Z,68.70
2017-07-12T15:01:37.504Z,67.00
2017-07-12T15:04:06.840Z,66.10
2017-07-12T15:06:36.178Z,65.00
2017-07-12T15:09:05.938Z,61.00
2017-07-12T15:11:34.939Z,54.80
2017-07-12T15:14:04.219Z,46.10
2017-07-12T15:16:33.515Z,43.50
2017-07-12T15:19:02.407Z,35.60
2017-07-12T15:21:31.564Z,33.70
2017-07-12T15:24:01.184Z,31.80
2017-07-12T15:26:30.640Z,30.00
2017-07-12T15:28:59.819Z,26.70
2017-07-12T15:31:29.415Z,24.40
2017-07-12T15:33:58.639Z,23.70
2017-07-12T15:36:28.033Z,21.80
2017-07-12T15:38:57.340Z,21.60
2017-07-12T15:41:26.700Z,18.00
2017-07-12T15:43:55.871Z,18.30
2017-07-12T15:46:25.121Z,19.20
2017-07-12T15:48:54.163Z,18.30
2017-07-12T15:51:23.578Z,17.50
2017-07-12T15:53:53.014Z,17.60
2017-07-12T15:56:23.290Z,17.20
2017-07-12T15:58:52.775Z,15.80
2017-07-12T16:01:22.022Z,13.50
2017-07-12T16:03:51.261Z,14.40
2017-07-12T16:06:20.670Z,14.20
2017-07-12T16:08:50.763Z,13.10
2017-07-12T16:11:20.350Z,13.10
2017-07-12T16:13:49.601Z,15.40
2017-07-12T16:16:19.092Z,14.70
2017-07-12T16:18:49.003Z,13.40
2017-07-12T16:21:19.504Z,14.20
2017-07-12T16:23:48.773Z,14.40
2017-07-12T16:26:18.234Z,10.90
2017-07-12T16:28:47.580Z,12.60
2017-07-12T16:31:17.091Z,13.30
2017-07-12T16:33:46.424Z,12.00
2017-07-12T16:36:15.652Z,10.60
2017-07-12T16:38:45.484Z,9.90
2017-07-12T16:41:14.932Z,10.00
2017-07-12T16:43:44.279Z,11.80
2017-07-12T16:46:13.660Z,10.70
2017-07-12T16:48:42.907Z,8.70
2017-07-12T16:51:12.482Z,9.70
2017-07-12T16:53:41.728Z,9.30
2017-07-12T16:56:10.943Z,8.00
2017-07-12T16:58:41.880Z,9.10
2017-07-12T17:01:11.206Z,11.30
2017-07-12T17:03:40.314Z,11.20
2017-07-12T17:06:09.582Z,9.00
2017-07-12T17:08:39.014Z,8.70
2017-07-12T17:11:09.002Z,7.60
2017-07-12T17:13:38.324Z,7.50
2017-07-12T17:16:07.471Z,9.60
2017-07-12T17:18:36.648Z,9.10
2017-07-12T17:21:06.105Z,8.90
2017-07-12T17:23:35.361Z,9.40
2017-07-12T17:26:04.556Z,8.50
2017-07-12T17:28:33.985Z,9.00
2017-07-12T17:31:03.461Z,10.50
2017-07-12T17:33:32.952Z,10.60
2017-07-12T17:36:05.762Z,9.70
2017-07-12T17:38:35.775Z,9.70
2017-07-12T17:41:05.053Z,14.40
2017-07-12T17:43:34.478Z,12.70
2017-07-12T17:46:04.746Z,13.70
2017-07-12T17:48:34.547Z,12.60
2017-07-12T17:51:04.014Z,12.80
2017-07-12T17:53:33.523Z,12.40
2017-07-12T17:56:03.635Z,13.60
2017-07-12T17:58:33.574Z,11.80
2017-07-12T18:01:03.998Z,10.30
2017-07-12T18:03:33.150Z,10.60
2017-07-12T18:06:03.376Z,10.50
2017-07-12T18:08:32.800Z,12.20
2017-07-12T18:11:02.313Z,11.30
2017-07-12T18:13:31.729Z,11.80
2017-07-12T18:16:01.113Z,10.90
2017-07-12T18:18:30.756Z,11.20
2017-07-12T18:21:00.355Z,10.80
2017-07-12T18:23:29.991Z,10.10
2017-07-12T18:26:00.156Z,9.10
2017-07-12T18:28:29.574Z,9.50
2017-07-12T18:30:58.662Z,10.40
2017-07-12T18:33:27.969Z,14.50
2017-07-12T18:35:57.533Z,13.50
2017-07-12T18:38:26.444Z,11.40
2017-07-12T18:40:56.218Z,11.50
2017-07-12T18:43:25.626Z,11.40
2017-07-12T18:45:55.021Z,11.20
2017-07-12T18:48:24.431Z,11.30
2017-07-12T18:50:53.520Z,11.30
2017-07-12T18:53:22.757Z,10.30
2017-07-12T18:55:52.076Z,10.40
2017-07-12T18:58:21.403Z,9.60
2017-07-12T19:00:50.724Z,10.30
2017-07-12T19:03:21.114Z,9.80
2017-07-12T19:05:50.223Z,9.70
2017-07-12T19:08:20.196Z,9.40
2017-07-12T19:10:50.260Z,8.10
2017-07-12T19:13:19.543Z,8.10
2017-07-12T19:15:48.791Z,10.00
2017-07-12T19:18:17.540Z,11.00
2017-07-12T19:20:46.259Z,11.50
2017-07-12T19:23:15.501Z,10.40
2017-07-12T19:25:44.727Z,10.50
2017-07-12T19:28:13.810Z,9.90
2017-07-12T19:30:42.893Z,9.20
2017-07-12T19:33:12.517Z,10.30
2017-07-12T19:35:41.953Z,11.40
2017-07-12T19:38:11.030Z,12.10
2017-07-12T19:40:40.505Z,10.80
2017-07-12T19:43:09.614Z,11.60
2017-07-12T19:45:39.125Z,12.00
2017-07-12T19:48:08.320Z,11.00
2017-07-12T19:50:37.557Z,12.40
2017-07-12T19:53:06.803Z,11.00
2017-07-12T19:55:36.221Z,12.90
2017-07-12T19:58:05.557Z,14.10
2017-07-12T20:00:34.800Z,13.80
2017-07-12T20:03:04.141Z,15.00
2017-07-12T20:05:34.196Z,15.70
2017-07-12T20:08:03.784Z,15.60
2017-07-12T20:10:32.754Z,14.70
2017-07-12T20:13:01.943Z,16.60
2017-07-12T20:15:31.516Z,16.30
2017-07-12T20:18:00.729Z,17.90
2017-07-12T20:20:29.961Z,18.50
2017-07-12T20:22:59.121Z,18.70
2017-07-12T20:25:28.570Z,17.90
2017-07-12T20:27:57.719Z,21.40
2017-07-12T20:30:27.028Z,20.70
2017-07-12T20:32:56.484Z,17.70
2017-07-12T20:35:25.498Z,19.50
2017-07-12T20:37:54.918Z,20.30
2017-07-12T20:40:24.583Z,18.10
2017-07-12T20:42:53.912Z,20.60
2017-07-12T20:45:23.959Z,18.90
2017-07-12T20:47:53.112Z,19.00
2017-07-12T20:50:22.250Z,20.60
2017-07-12T20:52:52.039Z,19.30
2017-07-12T20:55:21.270Z,19.80
2017-07-12T20:57:50.578Z,20.20
2017-07-12T21:00:19.928Z,17.40
2017-07-12T21:02:50.122Z,18.70
2017-07-12T21:05:19.350Z,19.60
2017-07-12T21:07:57.441Z,18.10
2017-07-12T21:10:26.710Z,19.40
2017-07-12T21:12:55.935Z,20.20
2017-07-12T21:15:25.353Z,20.60
2017-07-12T21:17:54.433Z,20.20
2017-07-12T21:20:23.182Z,21.10
2017-07-12T21:22:52.485Z,20.70
2017-07-12T21:25:21.920Z,21.30
2017-07-12T21:27:50.945Z,20.10
2017-07-12T21:30:20.106Z,18.80
2017-07-12T21:32:49.084Z,20.40
2017-07-12T21:35:18.416Z,23.60
2017-07-12T21:37:47.623Z,22.20
2017-07-12T21:40:16.994Z,19.80
2017-07-12T21:42:46.397Z,20.20
2017-07-12T21:45:15.647Z,20.00
2017-07-12T21:47:45.998Z,21.50
2017-07-12T21:50:15.228Z,21.50
2017-07-12T21:52:44.551Z,20.60
2017-07-12T21:55:30.987Z,21.20
2017-07-12T21:58:17.988Z,23.60
2017-07-12T22:01:04.109Z,24.00
2017-07-12T22:03:50.607Z,21.50
2017-07-12T22:06:36.892Z,23.20
2017-07-12T22:09:25.645Z,21.90
2017-07-12T22:12:12.797Z,22.50
2017-07-12T22:14:58.957Z,22.40
2017-07-12T22:17:45.775Z,21.20
2017-07-12T22:20:32.916Z,19.50
2017-07-12T22:23:18.534Z,19.40
2017-07-12T22:26:04.518Z,20.80
2017-07-12T22:28:50.680Z,21.30
2017-07-12T22:31:36.975Z,20.70
2017-07-12T22:34:22.724Z,20.50
2017-07-12T22:37:06.369Z,22.90
2017-07-12T22:39:41.275Z,22.20
2017-07-12T22:42:15.935Z,21.90
2017-07-12T22:44:45.238Z,19.40
2017-07-12T22:47:14.718Z,19.70
2017-07-12T22:49:43.444Z,21.00
2017-07-12T22:52:13.057Z,16.60
2017-07-12T22:54:42.324Z,16.50
2017-07-12T22:57:11.768Z,18.10
2017-07-12T22:59:41.158Z,16.70
2017-07-12T23:02:11.287Z,18.50
2017-07-12T23:04:40.696Z,18.40
2017-07-12T23:07:09.791Z,18.80
2017-07-12T23:09:40.840Z,18.50
2017-07-12T23:12:09.961Z,20.20
2017-07-12T23:14:39.193Z,18.80
2017-07-12T23:17:08.552Z,17.50
2017-07-12T23:19:37.874Z,17.40
2017-07-12T23:22:07.278Z,19.00
2017-07-12T23:24:36.585Z,19.80
2017-07-12T23:27:05.941Z,19.30
2017-07-12T23:29:35.177Z,19.20
2017-07-12T23:32:03.941Z,19.20
2017-07-12T23:34:32.619Z,18.50
2017-07-12T23:37:01.350Z,16.20
2017-07-12T23:39:30.613Z,17.60
2017-07-12T23:41:59.773Z,17.20
2017-07-12T23:44:29.130Z,17.10
2017-07-12T23:46:58.622Z,16.30
2017-07-12T23:49:27.821Z,16.90
2017-07-12T23:51:57.015Z,18.40
2017-07-12T23:54:25.851Z,19.50
2017-07-12T23:56:54.519Z,18.60
2017-07-12T23:59:23.596Z,19.30
